sensor_id;sensor_type;location;lat;lon;timestamp;temperature;humidity
68354;DHT22;55274;43.060;25.618;2022-12-07T08:56:04;8.50;99.90
68354;DHT22;55274;43.060;25.618;2022-12-07T08:58:32;8.90;99.90
68354;DHT22;55274;43.060;25.618;2022-12-07T09:00:58;9.30;99.90
68354;DHT22;55274;43.060;25.618;2022-12-07T09:03:24;9.30;99.90
68354;DHT22;55274;43.060;25.618;2022-12-07T09:05:50;9.30;99.90
68354;DHT22;55274;43.060;25.618;2022-12-07T09:08:16;9.40;99.90
68354;DHT22;55274;43.060;25.618;2022-12-07T09:10:42;9.40;99.90
68354;DHT22;55274;43.060;25.618;2022-12-07T09:13:08;9.50;99.90
68354;DHT22;55274;43.060;25.618;2022-12-07T09:15:34;9.50;99.90
68354;DHT22;55274;43.060;25.618;2022-12-07T09:18:00;9.60;99.90
68354;DHT22;55274;43.060;25.618;2022-12-07T09:20:25;9.70;99.90
68354;DHT22;55274;43.060;25.618;2022-12-07T09:22:51;9.80;99.90
68354;DHT22;55274;43.060;25.618;2022-12-07T09:25:17;9.90;99.90
68354;DHT22;55274;43.060;25.618;2022-12-07T09:27:43;10.00;99.90
68354;DHT22;55274;43.060;25.618;2022-12-07T09:30:09;10.10;99.90
68354;DHT22;55274;43.060;25.618;2022-12-07T09:32:35;10.10;99.90
68354;DHT22;55274;43.060;25.618;2022-12-07T09:35:00;10.20;99.90
68354;DHT22;55274;43.060;25.618;2022-12-07T09:37:26;10.30;99.90
68354;DHT22;55274;43.060;25.618;2022-12-07T09:39:52;10.40;99.90
68354;DHT22;55274;43.060;25.618;2022-12-07T09:42:36;10.40;99.90
68354;DHT22;55274;43.060;25.618;2022-12-07T09:45:05;10.40;99.90
68354;DHT22;55274;43.060;25.618;2022-12-07T09:47:33;10.40;99.90
68354;DHT22;55274;43.060;25.618;2022-12-07T09:50:14;10.50;99.90
68354;DHT22;55274;43.060;25.618;2022-12-07T09:52:42;10.50;99.90
68354;DHT22;55274;43.060;25.618;2022-12-07T09:55:14;10.70;99.90
68354;DHT22;55274;43.060;25.618;2022-12-07T09:57:40;11.00;99.90
68354;DHT22;55274;43.060;25.618;2022-12-07T10:00:18;11.10;99.90
68354;DHT22;55274;43.060;25.618;2022-12-07T10:02:58;11.40;99.90
68354;DHT22;55274;43.060;25.618;2022-12-07T10:05:30;11.50;99.90
68354;DHT22;55274;43.060;25.618;2022-12-07T10:07:58;11.40;99.10
68354;DHT22;55274;43.060;25.618;2022-12-07T10:10:32;11.50;98.20
68354;DHT22;55274;43.060;25.618;2022-12-07T10:13:16;11.40;99.30
68354;DHT22;55274;43.060;25.618;2022-12-07T10:15:53;11.40;99.00
68354;DHT22;55274;43.060;25.618;2022-12-07T10:21:27;11.50;99.50
68354;DHT22;55274;43.060;25.618;2022-12-07T10:29:16;12.00;98.10
68354;DHT22;55274;43.060;25.618;2022-12-07T10:31:44;12.00;97.30
68354;DHT22;55274;43.060;25.618;2022-12-07T10:36:47;11.90;97.50
68354;DHT22;55274;43.060;25.618;2022-12-07T10:39:16;11.80;97.80
68354;DHT22;55274;43.060;25.618;2022-12-07T10:42:19;11.90;98.00
68354;DHT22;55274;43.060;25.618;2022-12-07T10:44:49;12.00;97.60
68354;DHT22;55274;43.060;25.618;2022-12-07T10:47:33;12.00;97.40
68354;DHT22;55274;43.060;25.618;2022-12-07T10:50:18;12.00;97.30
68354;DHT22;55274;43.060;25.618;2022-12-07T10:58:45;12.10;97.70
68354;DHT22;55274;43.060;25.618;2022-12-07T11:07:06;12.00;97.10
68354;DHT22;55274;43.060;25.618;2022-12-07T11:17:53;12.20;97.30
68354;DHT22;55274;43.060;25.618;2022-12-07T11:34:18;12.30;97.30
68354;DHT22;55274;43.060;25.618;2022-12-07T11:36:51;12.30;97.50
68354;DHT22;55274;43.060;25.618;2022-12-07T11:41:45;12.50;98.40
68354;DHT22;55274;43.060;25.618;2022-12-07T11:44:40;12.60;97.60
68354;DHT22;55274;43.060;25.618;2022-12-07T11:47:21;12.70;97.30
68354;DHT22;55274;43.060;25.618;2022-12-07T11:49:56;12.70;97.50
68354;DHT22;55274;43.060;25.618;2022-12-07T11:52:58;12.80;97.20
68354;DHT22;55274;43.060;25.618;2022-12-07T11:55:26;12.70;96.70
68354;DHT22;55274;43.060;25.618;2022-12-07T12:06:36;12.70;97.40
68354;DHT22;55274;43.060;25.618;2022-12-07T12:09:12;12.70;96.60
68354;DHT22;55274;43.060;25.618;2022-12-07T12:25:52;12.60;98.80
68354;DHT22;55274;43.060;25.618;2022-12-07T12:33:37;12.70;97.80
68354;DHT22;55274;43.060;25.618;2022-12-07T12:47:01;12.70;99.90
68354;DHT22;55274;43.060;25.618;2022-12-07T12:49:41;12.60;99.90
68354;DHT22;55274;43.060;25.618;2022-12-07T12:54:39;12.60;99.90
68354;DHT22;55274;43.060;25.618;2022-12-07T12:57:32;12.60;99.90
68354;DHT22;55274;43.060;25.618;2022-12-07T13:00:00;12.50;99.90
68354;DHT22;55274;43.060;25.618;2022-12-07T13:02:37;12.40;99.90
68354;DHT22;55274;43.060;25.618;2022-12-07T13:18:35;12.10;99.90
68354;DHT22;55274;43.060;25.618;2022-12-07T13:23:36;12.00;99.90
68354;DHT22;55274;43.060;25.618;2022-12-07T13:26:13;11.90;99.90
68354;DHT22;55274;43.060;25.618;2022-12-07T13:28:43;12.00;99.90
68354;DHT22;55274;43.060;25.618;2022-12-07T13:31:22;11.90;99.90
68354;DHT22;55274;43.060;25.618;2022-12-07T13:33:49;11.90;99.90
68354;DHT22;55274;43.060;25.618;2022-12-07T13:36:23;11.80;99.90
68354;DHT22;55274;43.060;25.618;2022-12-07T13:38:57;11.80;99.90
68354;DHT22;55274;43.060;25.618;2022-12-07T13:41:26;11.80;99.90
68354;DHT22;55274;43.060;25.618;2022-12-07T13:44:13;11.70;99.90
68354;DHT22;55274;43.060;25.618;2022-12-07T13:49:46;11.60;99.90
68354;DHT22;55274;43.060;25.618;2022-12-07T13:54:48;11.50;99.90
68354;DHT22;55274;43.060;25.618;2022-12-07T13:57:15;11.40;99.90
68354;DHT22;55274;43.060;25.618;2022-12-07T13:59:42;11.40;99.90
68354;DHT22;55274;43.060;25.618;2022-12-07T14:02:57;11.30;99.90
68354;DHT22;55274;43.060;25.618;2022-12-07T14:05:29;11.20;99.90
68354;DHT22;55274;43.060;25.618;2022-12-07T14:10:33;11.10;99.90
68354;DHT22;55274;43.060;25.618;2022-12-07T14:13:00;11.10;99.90
68354;DHT22;55274;43.060;25.618;2022-12-07T14:15:32;11.00;99.90
68354;DHT22;55274;43.060;25.618;2022-12-07T14:17:59;10.90;99.90
68354;DHT22;55274;43.060;25.618;2022-12-07T14:20:36;10.90;99.90
68354;DHT22;55274;43.060;25.618;2022-12-07T14:23:03;10.80;99.90
68354;DHT22;55274;43.060;25.618;2022-12-07T14:25:54;10.80;99.90
68354;DHT22;55274;43.060;25.618;2022-12-07T14:28:31;10.60;99.90
68354;DHT22;55274;43.060;25.618;2022-12-07T14:30:58;10.60;99.90
68354;DHT22;55274;43.060;25.618;2022-12-07T14:33:25;10.50;99.90
68354;DHT22;55274;43.060;25.618;2022-12-07T14:35:51;10.50;99.90
68354;DHT22;55274;43.060;25.618;2022-12-07T14:38:22;10.40;99.90
68354;DHT22;55274;43.060;25.618;2022-12-07T14:40:48;10.40;99.90
68354;DHT22;55274;43.060;25.618;2022-12-07T14:43:18;10.30;99.90
68354;DHT22;55274;43.060;25.618;2022-12-07T14:45:44;10.30;99.90
68354;DHT22;55274;43.060;25.618;2022-12-07T14:48:12;10.20;99.90
68354;DHT22;55274;43.060;25.618;2022-12-07T14:50:48;10.10;99.90
68354;DHT22;55274;43.060;25.618;2022-12-07T14:53:16;10.00;99.90
68354;DHT22;55274;43.060;25.618;2022-12-07T14:55:43;10.00;99.90
68354;DHT22;55274;43.060;25.618;2022-12-07T14:58:17;9.90;99.90
68354;DHT22;55274;43.060;25.618;2022-12-07T15:00:43;9.80;99.90
68354;DHT22;55274;43.060;25.618;2022-12-07T15:03:09;9.80;99.90
68354;DHT22;55274;43.060;25.618;2022-12-07T15:05:36;9.70;99.90
68354;DHT22;55274;43.060;25.618;2022-12-07T15:08:02;9.60;99.90
68354;DHT22;55274;43.060;25.618;2022-12-07T15:10:31;9.50;99.90
68354;DHT22;55274;43.060;25.618;2022-12-07T15:13:02;9.40;99.90
68354;DHT22;55274;43.060;25.618;2022-12-07T15:15:48;9.30;99.90
68354;DHT22;55274;43.060;25.618;2022-12-07T15:18:15;9.30;99.90
68354;DHT22;55274;43.060;25.618;2022-12-07T15:20:41;9.20;99.90
68354;DHT22;55274;43.060;25.618;2022-12-07T15:23:07;9.20;99.90
68354;DHT22;55274;43.060;25.618;2022-12-07T15:25:33;9.10;99.90
68354;DHT22;55274;43.060;25.618;2022-12-07T15:27:59;9.00;99.90
68354;DHT22;55274;43.060;25.618;2022-12-07T15:30:25;8.90;99.90
68354;DHT22;55274;43.060;25.618;2022-12-07T15:32:51;8.90;99.90
68354;DHT22;55274;43.060;25.618;2022-12-07T15:35:18;8.80;99.90
68354;DHT22;55274;43.060;25.618;2022-12-07T15:37:44;8.70;99.90
68354;DHT22;55274;43.060;25.618;2022-12-07T15:40:10;8.70;99.90
68354;DHT22;55274;43.060;25.618;2022-12-07T15:42:36;8.60;99.90
68354;DHT22;55274;43.060;25.618;2022-12-07T15:45:04;8.60;99.90
68354;DHT22;55274;43.060;25.618;2022-12-07T15:47:36;8.40;99.90
68354;DHT22;55274;43.060;25.618;2022-12-07T15:50:08;8.40;99.90
68354;DHT22;55274;43.060;25.618;2022-12-07T15:52:35;8.30;99.90
68354;DHT22;55274;43.060;25.618;2022-12-07T15:55:01;8.30;99.90
68354;DHT22;55274;43.060;25.618;2022-12-07T15:57:29;8.20;99.90
68354;DHT22;55274;43.060;25.618;2022-12-07T15:59:55;8.20;99.90
68354;DHT22;55274;43.060;25.618;2022-12-07T16:02:22;8.10;99.90
68354;DHT22;55274;43.060;25.618;2022-12-07T16:04:49;8.00;99.90
68354;DHT22;55274;43.060;25.618;2022-12-07T16:07:15;7.90;99.90
68354;DHT22;55274;43.060;25.618;2022-12-07T16:09:45;7.90;99.90
68354;DHT22;55274;43.060;25.618;2022-12-07T16:12:13;7.80;99.90
68354;DHT22;55274;43.060;25.618;2022-12-07T16:14:39;7.80;99.90
68354;DHT22;55274;43.060;25.618;2022-12-07T16:17:06;7.70;99.90
68354;DHT22;55274;43.060;25.618;2022-12-07T16:19:33;7.70;99.90
68354;DHT22;55274;43.060;25.618;2022-12-07T16:21:59;7.60;99.90
68354;DHT22;55274;43.060;25.618;2022-12-07T16:24:25;7.60;99.90
68354;DHT22;55274;43.060;25.618;2022-12-07T16:26:51;7.50;99.90
68354;DHT22;55274;43.060;25.618;2022-12-07T16:29:19;7.40;99.90
68354;DHT22;55274;43.060;25.618;2022-12-07T16:31:46;7.40;99.90
68354;DHT22;55274;43.060;25.618;2022-12-07T16:34:12;7.40;99.90
68354;DHT22;55274;43.060;25.618;2022-12-07T16:36:38;7.30;99.90
68354;DHT22;55274;43.060;25.618;2022-12-07T16:39:04;7.20;99.90
68354;DHT22;55274;43.060;25.618;2022-12-07T16:41:30;7.20;99.90
68354;DHT22;55274;43.060;25.618;2022-12-07T16:43:57;7.20;99.90
68354;DHT22;55274;43.060;25.618;2022-12-07T16:46:27;7.10;99.90
68354;DHT22;55274;43.060;25.618;2022-12-07T16:48:53;7.00;99.90
68354;DHT22;55274;43.060;25.618;2022-12-07T16:51:18;7.00;99.90
68354;DHT22;55274;43.060;25.618;2022-12-07T16:53:44;7.00;99.90
68354;DHT22;55274;43.060;25.618;2022-12-07T16:56:12;6.90;99.90
68354;DHT22;55274;43.060;25.618;2022-12-07T16:58:38;6.80;99.90
68354;DHT22;55274;43.060;25.618;2022-12-07T17:01:18;6.80;99.90
68354;DHT22;55274;43.060;25.618;2022-12-07T17:03:45;6.70;99.90
68354;DHT22;55274;43.060;25.618;2022-12-07T17:06:20;6.70;99.90
68354;DHT22;55274;43.060;25.618;2022-12-07T17:08:46;6.70;99.90
68354;DHT22;55274;43.060;25.618;2022-12-07T17:11:14;6.60;99.90
68354;DHT22;55274;43.060;25.618;2022-12-07T17:13:40;6.60;99.90
68354;DHT22;55274;43.060;25.618;2022-12-07T17:16:27;6.60;99.90
68354;DHT22;55274;43.060;25.618;2022-12-07T17:18:53;6.50;99.90
68354;DHT22;55274;43.060;25.618;2022-12-07T17:21:19;6.40;99.90
68354;DHT22;55274;43.060;25.618;2022-12-07T17:23:45;6.40;99.90
68354;DHT22;55274;43.060;25.618;2022-12-07T17:26:16;6.30;99.90
68354;DHT22;55274;43.060;25.618;2022-12-07T17:28:43;6.30;99.90
68354;DHT22;55274;43.060;25.618;2022-12-07T17:31:10;6.30;99.90
68354;DHT22;55274;43.060;25.618;2022-12-07T17:33:37;6.30;99.90
68354;DHT22;55274;43.060;25.618;2022-12-07T17:36:12;6.20;99.90
68354;DHT22;55274;43.060;25.618;2022-12-07T17:38:39;6.20;99.90
68354;DHT22;55274;43.060;25.618;2022-12-07T17:43:35;6.20;99.90
68354;DHT22;55274;43.060;25.618;2022-12-07T17:46:08;6.20;99.90
68354;DHT22;55274;43.060;25.618;2022-12-07T17:48:35;6.10;99.90
68354;DHT22;55274;43.060;25.618;2022-12-07T17:51:01;6.10;99.90
68354;DHT22;55274;43.060;25.618;2022-12-07T17:53:48;6.00;99.90
68354;DHT22;55274;43.060;25.618;2022-12-07T17:56:14;6.00;99.90
68354;DHT22;55274;43.060;25.618;2022-12-07T17:58:40;5.90;99.90
68354;DHT22;55274;43.060;25.618;2022-12-07T18:01:09;5.90;99.90
68354;DHT22;55274;43.060;25.618;2022-12-07T18:03:35;5.90;99.90
68354;DHT22;55274;43.060;25.618;2022-12-07T18:06:01;5.80;99.90
68354;DHT22;55274;43.060;25.618;2022-12-07T18:08:27;5.80;99.90
68354;DHT22;55274;43.060;25.618;2022-12-07T18:11:00;5.80;99.90
68354;DHT22;55274;43.060;25.618;2022-12-07T18:13:25;5.70;99.90
68354;DHT22;55274;43.060;25.618;2022-12-07T18:16:01;5.70;99.90
68354;DHT22;55274;43.060;25.618;2022-12-07T18:18:28;5.60;99.90
68354;DHT22;55274;43.060;25.618;2022-12-07T18:20:53;5.60;99.90
68354;DHT22;55274;43.060;25.618;2022-12-07T18:23:19;5.60;99.90
68354;DHT22;55274;43.060;25.618;2022-12-07T18:25:49;5.60;99.90
68354;DHT22;55274;43.060;25.618;2022-12-07T18:28:15;5.50;99.90
68354;DHT22;55274;43.060;25.618;2022-12-07T18:30:42;5.40;99.90
68354;DHT22;55274;43.060;25.618;2022-12-07T18:33:17;5.40;99.90
68354;DHT22;55274;43.060;25.618;2022-12-07T18:35:43;5.30;99.90
68354;DHT22;55274;43.060;25.618;2022-12-07T18:38:09;5.30;99.90
68354;DHT22;55274;43.060;25.618;2022-12-07T18:40:38;5.30;99.90
68354;DHT22;55274;43.060;25.618;2022-12-07T18:43:05;5.20;99.90
68354;DHT22;55274;43.060;25.618;2022-12-07T18:45:34;5.20;99.90
68354;DHT22;55274;43.060;25.618;2022-12-07T18:48:01;5.20;99.90
68354;DHT22;55274;43.060;25.618;2022-12-07T18:50:27;5.10;99.90
68354;DHT22;55274;43.060;25.618;2022-12-07T18:52:55;5.10;99.90
68354;DHT22;55274;43.060;25.618;2022-12-07T18:55:21;5.10;99.90
68354;DHT22;55274;43.060;25.618;2022-12-07T18:57:47;5.10;99.90
68354;DHT22;55274;43.060;25.618;2022-12-07T19:00:13;5.10;99.90
68354;DHT22;55274;43.060;25.618;2022-12-07T19:02:39;5.10;99.90
68354;DHT22;55274;43.060;25.618;2022-12-07T19:05:05;5.10;99.90
68354;DHT22;55274;43.060;25.618;2022-12-07T19:07:30;5.10;99.90
68354;DHT22;55274;43.060;25.618;2022-12-07T19:09:56;5.00;99.90
68354;DHT22;55274;43.060;25.618;2022-12-07T19:12:22;5.00;99.90
68354;DHT22;55274;43.060;25.618;2022-12-07T19:14:48;4.90;99.90
68354;DHT22;55274;43.060;25.618;2022-12-07T19:17:14;4.90;99.90
68354;DHT22;55274;43.060;25.618;2022-12-07T19:19:44;4.90;99.90
68354;DHT22;55274;43.060;25.618;2022-12-07T19:22:13;4.90;99.90
68354;DHT22;55274;43.060;25.618;2022-12-07T19:24:39;4.90;99.90
68354;DHT22;55274;43.060;25.618;2022-12-07T19:27:06;4.80;99.90
68354;DHT22;55274;43.060;25.618;2022-12-07T19:29:33;4.80;99.90
68354;DHT22;55274;43.060;25.618;2022-12-07T19:32:00;4.80;99.90
68354;DHT22;55274;43.060;25.618;2022-12-07T19:34:26;4.80;99.90
68354;DHT22;55274;43.060;25.618;2022-12-07T19:36:52;4.80;99.90
68354;DHT22;55274;43.060;25.618;2022-12-07T19:39:18;4.70;99.90
68354;DHT22;55274;43.060;25.618;2022-12-07T19:41:44;4.80;99.90
68354;DHT22;55274;43.060;25.618;2022-12-07T19:44:17;4.70;99.90
68354;DHT22;55274;43.060;25.618;2022-12-07T19:46:47;4.70;99.90
68354;DHT22;55274;43.060;25.618;2022-12-07T19:49:14;4.70;99.90
68354;DHT22;55274;43.060;25.618;2022-12-07T19:51:42;4.80;99.90
68354;DHT22;55274;43.060;25.618;2022-12-07T19:54:09;4.80;99.90
68354;DHT22;55274;43.060;25.618;2022-12-07T19:56:36;4.80;99.90
68354;DHT22;55274;43.060;25.618;2022-12-07T19:59:01;4.70;99.90
68354;DHT22;55274;43.060;25.618;2022-12-07T20:01:28;4.60;99.90
68354;DHT22;55274;43.060;25.618;2022-12-07T20:03:55;4.60;99.90
68354;DHT22;55274;43.060;25.618;2022-12-07T20:06:22;4.50;99.90
68354;DHT22;55274;43.060;25.618;2022-12-07T20:08:48;4.60;99.90
68354;DHT22;55274;43.060;25.618;2022-12-07T20:11:15;4.60;99.90
68354;DHT22;55274;43.060;25.618;2022-12-07T20:14:07;4.80;99.90
68354;DHT22;55274;43.060;25.618;2022-12-07T20:16:34;4.90;99.90
68354;DHT22;55274;43.060;25.618;2022-12-07T20:18:59;5.00;99.90
68354;DHT22;55274;43.060;25.618;2022-12-07T20:21:26;5.00;99.90
68354;DHT22;55274;43.060;25.618;2022-12-07T20:23:52;5.20;99.90
68354;DHT22;55274;43.060;25.618;2022-12-07T20:26:18;5.20;99.90
68354;DHT22;55274;43.060;25.618;2022-12-07T20:28:44;5.30;99.90
68354;DHT22;55274;43.060;25.618;2022-12-07T20:31:12;5.40;99.90
68354;DHT22;55274;43.060;25.618;2022-12-07T20:33:39;5.50;99.90
68354;DHT22;55274;43.060;25.618;2022-12-07T20:36:05;5.50;99.90
68354;DHT22;55274;43.060;25.618;2022-12-07T20:38:33;5.60;99.90
68354;DHT22;55274;43.060;25.618;2022-12-07T20:41:01;5.60;99.90
68354;DHT22;55274;43.060;25.618;2022-12-07T20:43:27;5.60;99.90
68354;DHT22;55274;43.060;25.618;2022-12-07T20:45:54;5.60;99.90
68354;DHT22;55274;43.060;25.618;2022-12-07T20:48:20;5.70;99.90
68354;DHT22;55274;43.060;25.618;2022-12-07T20:50:46;5.70;99.90
68354;DHT22;55274;43.060;25.618;2022-12-07T20:53:12;5.70;99.90
68354;DHT22;55274;43.060;25.618;2022-12-07T20:55:38;5.80;99.90
68354;DHT22;55274;43.060;25.618;2022-12-07T20:58:05;5.80;99.90
68354;DHT22;55274;43.060;25.618;2022-12-07T21:00:31;5.80;99.90
68354;DHT22;55274;43.060;25.618;2022-12-07T21:02:56;5.80;99.90
68354;DHT22;55274;43.060;25.618;2022-12-07T21:05:23;5.80;99.90
68354;DHT22;55274;43.060;25.618;2022-12-07T21:07:49;5.80;99.90
68354;DHT22;55274;43.060;25.618;2022-12-07T21:10:15;5.80;99.90
68354;DHT22;55274;43.060;25.618;2022-12-07T21:12:41;5.90;99.90
68354;DHT22;55274;43.060;25.618;2022-12-07T21:15:07;5.90;99.90
68354;DHT22;55274;43.060;25.618;2022-12-07T21:17:33;5.90;99.90
68354;DHT22;55274;43.060;25.618;2022-12-07T21:19:59;5.90;99.90
68354;DHT22;55274;43.060;25.618;2022-12-07T21:22:25;5.90;99.90
68354;DHT22;55274;43.060;25.618;2022-12-07T21:24:51;5.90;99.90
68354;DHT22;55274;43.060;25.618;2022-12-07T21:27:16;5.90;99.90
68354;DHT22;55274;43.060;25.618;2022-12-07T21:29:43;5.90;99.90
68354;DHT22;55274;43.060;25.618;2022-12-07T21:32:09;6.00;99.90
68354;DHT22;55274;43.060;25.618;2022-12-07T21:34:35;6.00;99.90
68354;DHT22;55274;43.060;25.618;2022-12-07T21:37:00;5.90;99.90
68354;DHT22;55274;43.060;25.618;2022-12-07T21:39:26;6.00;99.90
68354;DHT22;55274;43.060;25.618;2022-12-07T21:41:52;5.90;99.90
68354;DHT22;55274;43.060;25.618;2022-12-07T21:44:18;5.90;99.90
68354;DHT22;55274;43.060;25.618;2022-12-07T21:46:44;6.00;99.90
68354;DHT22;55274;43.060;25.618;2022-12-07T21:49:12;6.00;99.90
68354;DHT22;55274;43.060;25.618;2022-12-07T21:51:39;6.00;99.90
68354;DHT22;55274;43.060;25.618;2022-12-07T21:54:06;6.00;99.90
68354;DHT22;55274;43.060;25.618;2022-12-07T21:56:34;6.00;99.90
68354;DHT22;55274;43.060;25.618;2022-12-07T21:59:06;6.00;99.90
68354;DHT22;55274;43.060;25.618;2022-12-07T22:01:34;6.00;99.90
68354;DHT22;55274;43.060;25.618;2022-12-07T22:04:17;6.00;99.90
68354;DHT22;55274;43.060;25.618;2022-12-07T22:06:44;6.00;99.90
68354;DHT22;55274;43.060;25.618;2022-12-07T22:09:10;6.00;99.90
68354;DHT22;55274;43.060;25.618;2022-12-07T22:11:36;6.10;99.90
68354;DHT22;55274;43.060;25.618;2022-12-07T22:14:03;6.10;99.90
68354;DHT22;55274;43.060;25.618;2022-12-07T22:16:47;6.10;99.90
68354;DHT22;55274;43.060;25.618;2022-12-07T22:19:13;6.00;99.90
68354;DHT22;55274;43.060;25.618;2022-12-07T22:21:39;6.00;99.90
68354;DHT22;55274;43.060;25.618;2022-12-07T22:24:05;6.10;99.90
68354;DHT22;55274;43.060;25.618;2022-12-07T22:26:32;6.10;99.90
68354;DHT22;55274;43.060;25.618;2022-12-07T22:28:58;6.10;99.90
68354;DHT22;55274;43.060;25.618;2022-12-07T22:31:25;6.10;99.90
68354;DHT22;55274;43.060;25.618;2022-12-07T22:33:51;6.10;99.90
68354;DHT22;55274;43.060;25.618;2022-12-07T22:36:17;6.10;99.90
68354;DHT22;55274;43.060;25.618;2022-12-07T22:38:44;6.20;99.90
68354;DHT22;55274;43.060;25.618;2022-12-07T22:43:38;6.20;99.90
68354;DHT22;55274;43.060;25.618;2022-12-07T22:46:04;6.30;99.90
68354;DHT22;55274;43.060;25.618;2022-12-07T22:48:30;6.30;99.90
68354;DHT22;55274;43.060;25.618;2022-12-07T22:50:56;6.30;99.90
68354;DHT22;55274;43.060;25.618;2022-12-07T22:53:23;6.30;99.90
68354;DHT22;55274;43.060;25.618;2022-12-07T22:55:49;6.30;99.90
68354;DHT22;55274;43.060;25.618;2022-12-07T22:58:16;6.30;99.90
68354;DHT22;55274;43.060;25.618;2022-12-07T23:00:42;6.20;99.90
68354;DHT22;55274;43.060;25.618;2022-12-07T23:03:08;6.10;99.90
68354;DHT22;55274;43.060;25.618;2022-12-07T23:05:44;6.10;99.90
68354;DHT22;55274;43.060;25.618;2022-12-07T23:08:10;6.10;99.90
68354;DHT22;55274;43.060;25.618;2022-12-07T23:10:40;6.10;99.90
68354;DHT22;55274;43.060;25.618;2022-12-07T23:13:06;6.10;99.90
68354;DHT22;55274;43.060;25.618;2022-12-07T23:15:50;6.10;99.90
68354;DHT22;55274;43.060;25.618;2022-12-07T23:18:16;6.10;99.90
68354;DHT22;55274;43.060;25.618;2022-12-07T23:20:41;6.00;99.90
68354;DHT22;55274;43.060;25.618;2022-12-07T23:23:07;6.00;99.90
68354;DHT22;55274;43.060;25.618;2022-12-07T23:25:33;6.00;99.90
68354;DHT22;55274;43.060;25.618;2022-12-07T23:27:59;6.00;99.90
68354;DHT22;55274;43.060;25.618;2022-12-07T23:30:24;6.10;99.90
68354;DHT22;55274;43.060;25.618;2022-12-07T23:32:50;6.10;99.90
68354;DHT22;55274;43.060;25.618;2022-12-07T23:35:16;6.10;99.90
68354;DHT22;55274;43.060;25.618;2022-12-07T23:37:42;6.10;99.90
68354;DHT22;55274;43.060;25.618;2022-12-07T23:40:08;6.10;99.90
68354;DHT22;55274;43.060;25.618;2022-12-07T23:42:34;6.10;99.90
68354;DHT22;55274;43.060;25.618;2022-12-07T23:45:00;6.10;99.90
68354;DHT22;55274;43.060;25.618;2022-12-07T23:47:25;6.10;99.90
68354;DHT22;55274;43.060;25.618;2022-12-07T23:49:51;6.10;99.90
68354;DHT22;55274;43.060;25.618;2022-12-07T23:52:17;6.10;99.90
68354;DHT22;55274;43.060;25.618;2022-12-07T23:54:43;6.10;99.90
68354;DHT22;55274;43.060;25.618;2022-12-07T23:57:08;6.10;99.90
68354;DHT22;55274;43.060;25.618;2022-12-07T23:59:34;6.20;99.90
